METAR Data
IDs: Format: Raw Decoded Include TAF

Data at: 1514 UTC 25 Jan 2020

METAR for:KJYO (Leesburg/Executive A, VA, US)
Text:KJYO 251455Z AUTO 31005KT 2 1/2SM BKN012 OVC018 05/05 A2988 RMK AO2 P0001
Temperature: 5.0°C ( 41°F)
Dewpoint: 5.0°C ( 41°F) [RH = 100%]
Pressure (altimeter):29.88 inches Hg (1011.9 mb)
Winds:from the NW (310 degrees) at 6 MPH (5 knots; 2.6 m/s)
Visibility: 2.50 sm ( 4.02 km)
Ceiling:1200 feet AGL
Clouds: broken clouds at 1200 feet AGL, overcast cloud deck at 1800 feet AGL
QC Flag:automated observation with no human augmentation